Archival Weather

Chicago O'Hare International

Chicago, Illinois (KORD)

Report from: Saturday, May 20, 2023 6:51 AM CDT
Current time: Friday, February 23, 2024 1:47 PM CST

Current weather – Weather history – Daily summaries
Weather forecast

Temperature10.0°C (50.0°F)
Wind chill8.2°C (46.7°F)
Dew point5.6°C (42.1°F)
Winds 7 kts (3.6 m/s, 8.1 mph) Northwest (320°)
Visibility10 mi. (16.1 km)
Clouds Few clouds 3,000 ft. (914 m)
Altimeter30.15 in.Hg (1021 mB)
Precip last 24 hours0.03 in. (1 mm)
Relative humidity74 %
Density altitude-721 ft. (-220 m)
Sea-level pressure102.1 kPa (1021 mB, 30.14 in.Hg)
Max temp last 6 hours12.2°C (54.0°F)
Min temp last 6 hours8.3°C (46.9°F)
Remarks Automated weather observing station with precipitation discriminator
Pressure rising more quickly
Flight conditions Visual Meteorological Conditions
Raw dataKORD 201151Z 32007KT 10SM FEW030 10/06 A3015 RMK AO2 SLP208 70003 T01000056 10122 20083 53018
An error has occurred. This application may no longer respond until reloaded. Reload 🗙